New Hartford, Connecticut
Current Conditions -  °F | °C
As of 6:20 PM on Monday 22 Dec 2014 (Local Time) from KBDL Reporting Station
Overcast Overcast  
Wind Chill: 37°   Ceiling: 1800
Heat Index: 41°   Visibility: 10mi
Dew Point: 34°   Wind: 6mph
Humidity: 76%   Direction: 70°ENE
Pressure: 30.28"   Gusts: NA
Location:  41.88°N, 72.98°W
Report Text: KBDL 222320Z 07005KT 10SM BKN018 OVC048 05/01 A3028 RMK AO2 T00500011
Loading
Personal Weather Stations






























Interactive Weather Map New forecast layout! Learn more

10-Day Weather Forecast

Advertisements
Track Severe Weather on mobile